Home   Weather   New Zealand   Auckland   Past weeks
Flag for New Zealand

Past Weather in Auckland, New Zealand — June 2018

Currently: 52 °F. Cool. (Weather station: Auckland Airport, New Zealand). See more current weather

June 2018 Weather in Auckland — Graph

°F

High & Low Weather Summary for June 2018

 TemperatureHumidityPressure
High64 °F (Jun 16, 1:00 pm)100% (Jun 1, 12:00 am)30.51 "Hg (Jun 1, 12:00 am)
Low36 °F (Jun 30, 6:00 am)55% (Jun 23, 3:00 pm)29.33 "Hg (Jun 4, 10:30 pm)
Average53 °F86%29.97 "Hg
* Reported Jun 1 12:00 am — Jun 30 11:30 pm, Auckland. Weather by CustomWeather, © 2022

Note: Actual official high and low records may vary slightly from our data, if they occured in-between our weather recording intervals... More about our weather records

Auckland Weather History for June 1, 2018

Scroll right to see more
 ConditionsComfort  
Time TempWeatherWind HumidityBarometerVisibility
12:00 am
Fri, Jun 1
45 °FQuite cool.3 mph100%30.15 "HgN/A
12:30 am43 °FQuite cool.3 mph93%30.15 "HgN/A
1:30 am43 °FQuite cool.2 mph100%30.15 "HgN/A
2:00 am43 °FQuite cool.2 mph93%30.15 "HgN/A
2:30 am41 °FQuite cool.2 mph100%30.15 "HgN/A
3:00 am41 °FQuite cool.1 mph100%30.15 "HgN/A
3:30 am41 °FQuite cool.3 mph100%30.15 "HgN/A
4:00 am39 °FChilly.2 mph100%30.15 "HgN/A
4:30 am39 °FChilly.1 mph100%30.15 "HgN/A
5:00 am41 °FQuite cool.2 mph93%30.15 "HgN/A
5:30 am41 °FPassing clouds.2 mph100%30.15 "HgN/A
6:00 am39 °FChilly.2 mph100%30.15 "HgN/A
6:30 am39 °FChilly.5 mph93%30.15 "HgN/A
7:00 am37 °FLight fog.1 mph100%30.18 "Hg2 mi
7:30 am39 °FChilly.2 mph100%30.18 "HgN/A
8:00 am39 °FFog.1 mph93%30.18 "Hg3 mi
8:30 am39 °FFog.1 mph100%30.18 "Hg3 mi
9:00 am43 °FQuite cool.2 mph93%30.18 "HgN/A
9:30 am45 °FQuite cool.1 mph93%30.18 "HgN/A
10:00 am48 °FCool.2 mph94%30.21 "HgN/A
10:30 am48 °FCool.3 mph94%30.21 "HgN/A
11:00 am50 °FCool.3 mph94%30.21 "HgN/A
11:30 am52 °FCool.3 mph82%30.21 "HgN/A
12:00 pm52 °FCool.3 mph88%30.18 "HgN/A
12:30 pm54 °FCool.3 mph82%30.18 "HgN/A
1:00 pm59 °FScattered clouds.3 mph72%30.15 "HgN/A
1:30 pm61 °FPassing clouds.12 mph63%30.15 "HgN/A
2:00 pm61 °FScattered clouds.10 mph63%30.15 "HgN/A
2:30 pm61 °FPassing clouds.8 mph63%30.15 "HgN/A
3:00 pm59 °FScattered clouds.8 mph68%30.15 "HgN/A
3:30 pm61 °FPassing clouds.9 mph63%30.15 "HgN/A
4:00 pm59 °FCool.8 mph72%30.15 "HgN/A
4:30 pm57 °FCool.7 mph77%30.15 "HgN/A
5:00 pm55 °FCool.5 mph77%30.15 "HgN/A
5:30 pm54 °FPassing clouds.6 mph82%30.15 "HgN/A
6:00 pm54 °FPassing clouds.5 mph82%30.15 "HgN/A
6:30 pm54 °FPassing clouds.6 mph82%30.18 "HgN/A
7:00 pm54 °FCool.6 mph82%30.18 "HgN/A
7:30 pm52 °FCool.5 mph82%30.18 "HgN/A
8:00 pm50 °FPassing clouds.3 mph94%30.18 "HgN/A
8:30 pm50 °FPassing clouds.3 mph94%30.18 "HgN/A
9:00 pm50 °FPassing clouds.3 mph88%30.18 "HgN/A
9:30 pm48 °FCool.6 mph94%30.18 "HgN/A
10:00 pm50 °FCool.7 mph94%30.18 "HgN/A
10:30 pm50 °FCool.5 mph88%30.18 "HgN/A
11:00 pm50 °FCool.7 mph94%30.18 "HgN/A
11:30 pm52 °FCool.7 mph88%30.18 "HgN/A
Weather by CustomWeather, © 2022

See weather overview